Главная страница
METAR-TAF:

METAR-TAF

Аэропорты :

Себу, Филиппины

широта: 10-18-48N, долгота: 123-58-58E, высота над уровнем моря: 23 м

Текущие метеонаблюдения

Эта сводка был подготовлена 59 минут назад, в 20:00 UTC
Ветер 2 Узел переменных направлений
Температура 26°C
Влажность 84%
Давление 1010 hPa
Видимость 10 км и более
Отдельные облака на высоте 2000 фута

METAR: RPVM 182000Z VRB02KT 9999 SCT020 26/23 Q1010 RMK A2983

Время: 04:59 (20:59 UTC)

Прогноз

Эта сводка был подготовлена 3 часа и 59 минут назад, в 17:00 UTC
Прогноз действительный с 18-го 18 UTC до 19-го 24 UTC
Ветер 7 Узел от восточно-северо-восточный
Видимость 10 км и более
небольшая облачность на высоте 2000 фута
временами
С 18-го 18 UTC до 18-го 24 UTC
Ветер 8 Узел от восточный
небольшая облачность на высоте 2000 фута
Отдельные облака на высоте 30000 фута

TAF: RPVM 181700Z 1818/1924 06007KT 9999 FEW020 TEMPO 1818/1824 09008KT FEW020 SCT300

Метеонаблюдения и прогнозы для более 4000 аэропортов (сводки METAR и TAF).

Имеющиеся станции представлены на карте желтыми и красными точками.

Чтобы увидеть название станции, наведите на нее мышь.

Затем щелкните, чтобы увидеть метеонаблюдения и метеопрогнозы.

Управление картой: чтобы увеличить масштаб, щелкните зеленые кнопки с черным крестиком; чтобы уменьшить масштаб, щелкните зеленую кнопку с тире; для просмотра соседних карт щелкайте зеленые стрелки.


METAR-TAF: